Time;durP1;ratioP1;P1;durP2;ratioP2;P2;SDS_P1;SDS_P2;PMS_P1;PMS_P2;Temp;Humidity;BMP_temperature;BMP_pressure;BME280_temperature;BME280_humidity;BME280_pressure;Samples;Min_cycle;Max_cycle;Signal;HPM_P1;HPM_P2
2022/09/14 00:00:15;;;;;;;;;;;;;;;16.15;71.07;100972.19;1992011;29;19928;-69
2022/09/14 00:01:19;;;;;;;;;;;;;;;16.12;71.69;100970.22;1992842;29;19997;-69
2022/09/14 00:02:30;;;;;;;;;;;;;;;16.13;71.86;100969.06;1993354;29;19950;-69
2022/09/14 00:03:32;;;;;;;;;;;;;;;16.12;71.61;100974.88;1991615;29;19956;-70
2022/09/14 00:04:37;;;;;;;;;;;;;;;16.14;71.45;100978.78;1992917;29;19929;-69
2022/09/14 00:05:40;;;;;;;;;;;;;;;16.16;71.44;100971.03;1992419;29;19932;-69
2022/09/14 00:06:43;;;;;;;;;;;;;;;16.18;71.46;100968.72;1992885;29;19935;-69
2022/09/14 00:07:46;;;;;;;;;;;;;;;16.16;71.71;100973.75;1992616;29;19928;-69
2022/09/14 00:08:50;;;;;;;;;;;;;;;16.13;71.97;100970.97;1992641;29;20385;-69
2022/09/14 00:09:53;;;;;;;;;;;;;;;16.09;72.08;100964.72;1993701;29;19928;-68
2022/09/14 00:10:56;;;;;;;;;;;;;;;16.04;72.04;100968.59;1984657;29;19929;-69
2022/09/14 00:11:59;;;;;;;;;;;;;;;16.02;72.03;100959.19;1984410;29;20394;-69
2022/09/14 00:13:02;;;;;;;;;;;;;;;15.98;72.33;100959.16;1992970;29;19933;-69
2022/09/14 00:14:05;;;;;;;;;;;;;;;15.97;71.97;100957.59;1992418;29;19933;-68
2022/09/14 00:15:09;;;;;;;;;;;;;;;15.95;72.58;100951.75;1992200;29;19936;-68
2022/09/14 00:16:13;;;;;;;;;;;;;;;15.93;72.65;100945.91;1992885;29;19933;-68
2022/09/14 00:17:16;;;;;;;;;;;;;;;15.91;72.69;100950.94;1991967;29;19932;-69
2022/09/14 00:18:19;;;;;;;;;;;;;;;15.89;73.08;100952.44;1990899;29;20321;-69
2022/09/14 00:19:23;;;;;;;;;;;;;;;15.87;72.86;100947.38;1992388;29;19956;-69
2022/09/14 00:20:28;;;;;;;;;;;;;;;15.87;72.68;100944.66;1992017;29;19941;-69
2022/09/14 00:21:32;;;;;;;;;;;;;;;15.87;72.58;100943.88;1984083;29;20011;-69
2022/09/14 00:22:35;;;;;;;;;;;;;;;15.86;72.80;100947.75;1984326;29;20006;-69
2022/09/14 00:23:39;;;;;;;;;;;;;;;15.85;73.10;100946.19;1992438;29;20472;-69
2022/09/14 00:24:41;;;;;;;;;;;;;;;15.85;72.75;100946.97;1992157;29;19933;-68
2022/09/14 00:25:45;;;;;;;;;;;;;;;15.86;72.52;100943.09;1992833;29;19940;-68
2022/09/14 00:26:47;;;;;;;;;;;;;;;15.88;72.91;100946.22;1992563;29;19939;-68
2022/09/14 00:27:51;;;;;;;;;;;;;;;15.87;73.09;100941.94;1991949;29;19951;-68
2022/09/14 00:28:54;;;;;;;;;;;;;;;15.92;72.36;100951.72;1991574;29;19929;-68
2022/09/14 00:29:58;;;;;;;;;;;;;;;15.94;72.37;100941.22;1992155;29;19929;-68
2022/09/14 00:31:02;;;;;;;;;;;;;;;15.97;72.54;100952.16;1991563;29;19924;-68
2022/09/14 00:32:06;;;;;;;;;;;;;;;16.02;72.16;100951.03;1991846;29;19936;-68
2022/09/14 00:33:08;;;;;;;;;;;;;;;16.04;72.42;100941.34;1992576;29;19928;-68
2022/09/14 00:34:14;;;;;;;;;;;;;;;16.13;72.41;100941.03;1983430;29;20384;-68
2022/09/14 00:35:17;;;;;;;;;;;;;;;16.16;72.26;100935.59;1984456;29;19979;-68
2022/09/14 00:36:23;;;;;;;;;;;;;;;16.23;72.09;100934.91;1993094;29;20012;-68
2022/09/14 00:37:26;;;;;;;;;;;;;;;16.28;71.75;100937.28;1992761;29;19929;-68
2022/09/14 00:38:29;;;;;;;;;;;;;;;16.34;71.59;100936.56;1992119;29;19929;-68
2022/09/14 00:39:32;;;;;;;;;;;;;;;16.39;71.22;100938.91;1992245;29;19966;-68
2022/09/14 00:40:36;;;;;;;;;;;;;;;16.42;71.20;100940.91;1992560;29;20323;-68
2022/09/14 00:41:39;;;;;;;;;;;;;;;16.47;71.00;100939.00;1993093;29;19940;-68
2022/09/14 00:42:43;;;;;;;;;;;;;;;16.49;71.04;100942.16;1992288;29;19977;-69
2022/09/14 00:43:53;;;;;;;;;;;;;;;16.51;70.44;100939.84;1993048;29;20456;-69
2022/09/14 00:45:08;;;;;;;;;;;;;;;16.52;70.54;100935.94;1991663;29;19924;-69
2022/09/14 00:46:10;;;;;;;;;;;;;;;16.51;70.98;100935.16;1992457;29;19951;-69
2022/09/14 00:47:17;;;;;;;;;;;;;;;16.51;70.66;100937.13;1991101;29;19955;-69
2022/09/14 00:48:23;;;;;;;;;;;;;;;16.50;70.63;100938.25;1991960;29;19960;-69
2022/09/14 00:49:26;;;;;;;;;;;;;;;16.51;70.47;100932.44;1992416;29;19997;-69
2022/09/14 00:50:30;;;;;;;;;;;;;;;16.52;70.30;100934.00;1992790;29;19972;-69
2022/09/14 00:51:36;;;;;;;;;;;;;;;16.55;70.74;100935.19;1991712;29;20012;-68
2022/09/14 00:52:42;;;;;;;;;;;;;;;16.56;70.42;100934.81;1991399;29;20015;-69
2022/09/14 00:53:45;;;;;;;;;;;;;;;16.61;70.54;100933.66;1984994;29;19934;-69
2022/09/14 00:54:49;;;;;;;;;;;;;;;16.65;70.27;100929.03;1984070;29;19930;-69
2022/09/14 00:55:53;;;;;;;;;;;;;;;16.67;70.12;100932.16;1991555;29;19937;-69
2022/09/14 00:56:57;;;;;;;;;;;;;;;16.71;69.96;100936.50;1992380;29;19963;-69
2022/09/14 00:58:01;;;;;;;;;;;;;;;16.75;69.88;100925.59;1992084;29;19932;-69
2022/09/14 00:59:06;;;;;;;;;;;;;;;16.77;69.82;100931.44;1992053;29;19980;-69
2022/09/14 01:00:10;;;;;;;;;;;;;;;16.79;69.48;100926.41;1992894;29;19929;-69
2022/09/14 01:01:13;;;;;;;;;;;;;;;16.80;70.10;100931.47;1992098;29;19932;-69
2022/09/14 01:02:17;;;;;;;;;;;;;;;16.81;69.81;100938.50;1992280;29;20006;-69
2022/09/14 01:03:21;;;;;;;;;;;;;;;16.82;69.54;100933.81;1991550;29;20012;-69
2022/09/14 01:04:25;;;;;;;;;;;;;;;16.82;69.90;100931.91;1983576;29;19974;-68
2022/09/14 01:05:36;;;;;;;;;;;;;;;16.81;69.65;100933.03;1984015;29;19986;-69
2022/09/14 01:06:44;;;;;;;;;;;;;;;16.80;70.19;100936.16;1992441;29;20011;-68
2022/09/14 01:08:04;;;;;;;;;;;;;;;16.79;70.39;100924.44;1991429;29;19967;-68
2022/09/14 01:09:20;;;;;;;;;;;;;;;16.80;70.09;100919.78;1991528;29;19979;-68
2022/09/14 01:10:28;;;;;;;;;;;;;;;16.82;70.36;100920.19;1992450;29;19933;-68
2022/09/14 01:11:38;;;;;;;;;;;;;;;16.82;70.47;100922.91;1992061;29;19925;-69
2022/09/14 01:12:57;;;;;;;;;;;;;;;16.85;70.37;100922.16;1992522;29;19936;-69
2022/09/14 01:14:02;;;;;;;;;;;;;;;16.87;70.71;100915.16;1991687;29;19929;-69
2022/09/14 01:15:09;;;;;;;;;;;;;;;16.89;71.15;100922.94;1992762;29;19928;-69
2022/09/14 01:16:22;;;;;;;;;;;;;;;16.90;71.98;100910.91;1991978;29;19933;-69
2022/09/14 01:17:31;;;;;;;;;;;;;;;16.90;72.63;100908.97;1991944;29;19933;-68
2022/09/14 01:18:37;;;;;;;;;;;;;;;16.93;73.42;100910.13;1977907;29;19973;-68
2022/09/14 01:20:00;;;;;;;;;;;;;;;16.93;72.83;100910.13;1977563;29;19949;-68
2022/09/14 01:21:05;;;;;;;;;;;;;;;16.93;72.34;100910.91;1991328;29;19928;-68
2022/09/14 01:22:11;;;;;;;;;;;;;;;16.92;71.77;100905.84;1984419;29;20060;-68
2022/09/14 01:23:17;;;;;;;;;;;;;;;16.89;72.53;100903.84;1984279;29;20610;-68
2022/09/14 01:24:26;;;;;;;;;;;;;;;16.86;72.50;100908.13;1991554;29;20016;-68
2022/09/14 01:25:39;;;;;;;;;;;;;;;16.83;72.91;100903.44;1992650;29;19932;-68
2022/09/14 01:26:49;;;;;;;;;;;;;;;16.81;73.42;100905.00;1991975;29;19929;-68
2022/09/14 01:27:55;;;;;;;;;;;;;;;16.80;72.92;100904.22;1992330;29;19952;-69
2022/09/14 01:29:00;;;;;;;;;;;;;;;16.82;73.43;100901.09;1991289;29;20038;-69
2022/09/14 01:30:05;;;;;;;;;;;;;;;16.78;72.77;100901.06;1991850;29;19932;-69
2022/09/14 01:31:12;;;;;;;;;;;;;;;16.77;72.91;100898.72;1991539;29;19929;-69
2022/09/14 01:32:17;;;;;;;;;;;;;;;16.72;72.68;100899.09;1992195;29;20029;-68
2022/09/14 01:33:23;;;;;;;;;;;;;;;16.68;72.43;100906.47;1991929;29;19975;-69
2022/09/14 01:34:27;;;;;;;;;;;;;;;16.66;73.36;100897.88;1991605;29;19948;-69
2022/09/14 01:35:34;;;;;;;;;;;;;;;16.65;74.20;100890.88;1992065;29;19933;-69
2022/09/14 01:36:38;;;;;;;;;;;;;;;16.65;74.45;100882.69;1992396;29;20027;-69
2022/09/14 01:37:43;;;;;;;;;;;;;;;16.67;75.63;100880.34;1991376;29;19929;-69
2022/09/14 01:38:47;;;;;;;;;;;;;;;16.67;75.09;100883.06;1992558;29;19929;-69
2022/09/14 01:39:55;;;;;;;;;;;;;;;16.64;74.66;100884.63;1992345;29;19940;-68
2022/09/14 01:40:59;;;;;;;;;;;;;;;16.66;74.55;100881.53;1992341;29;20044;-68
2022/09/14 01:42:03;;;;;;;;;;;;;;;16.63;74.50;100876.84;1983503;29;19939;-68
2022/09/14 01:43:09;;;;;;;;;;;;;;;16.63;74.62;100879.56;1984297;29;20376;-68
2022/09/14 01:44:16;;;;;;;;;;;;;;;16.64;75.63;100879.19;1992552;29;20411;-67
2022/09/14 01:45:21;;;;;;;;;;;;;;;16.65;75.66;100879.97;1992376;29;19947;-68
2022/09/14 01:46:27;;;;;;;;;;;;;;;16.65;74.82;100879.97;1991452;29;20028;-68
2022/09/14 01:47:33;;;;;;;;;;;;;;;16.67;75.65;100883.88;1992177;29;20028;-69
2022/09/14 01:48:39;;;;;;;;;;;;;;;16.69;75.70;100881.56;1984140;29;19928;-68
2022/09/14 01:49:44;;;;;;;;;;;;;;;16.72;75.16;100885.44;1983599;29;19982;-68
2022/09/14 01:50:48;;;;;;;;;;;;;;;16.73;75.25;100881.59;1992234;29;19948;-68
2022/09/14 01:51:55;;;;;;;;;;;;;;;16.73;74.97;100881.59;1986394;29;19936;-68
2022/09/14 01:53:01;;;;;;;;;;;;;;;16.70;74.82;100882.34;1977774;29;19936;-68
2022/09/14 01:54:05;;;;;;;;;;;;;;;16.68;74.58;100879.97;1983869;29;20028;-68
2022/09/14 01:55:11;;;;;;;;;;;;;;;16.68;74.45;100868.31;1991224;29;19975;-68
2022/09/14 01:56:19;;;;;;;;;;;;;;;16.68;75.93;100866.34;1991497;29;19929;-68
2022/09/14 01:57:24;;;;;;;;;;;;;;;16.69;75.23;100867.94;1991699;29;20358;-68
2022/09/14 01:58:31;;;;;;;;;;;;;;;16.70;74.86;100871.44;1991663;29;19970;-68
2022/09/14 01:59:37;;;;;;;;;;;;;;;16.71;75.63;100867.53;1992309;29;19925;-68
2022/09/14 02:00:44;;;;;;;;;;;;;;;16.74;75.73;100866.78;1991898;29;19981;-68
2022/09/14 02:01:50;;;;;;;;;;;;;;;16.76;76.08;100862.50;1991649;29;21312;-68
2022/09/14 02:02:55;;;;;;;;;;;;;;;16.79;75.75;100860.97;1992437;29;19928;-68
2022/09/14 02:04:02;;;;;;;;;;;;;;;16.78;74.94;100873.81;1992518;29;19929;-68
2022/09/14 02:05:07;;;;;;;;;;;;;;;16.76;75.07;100870.69;1992786;29;19924;-68
2022/09/14 02:06:13;;;;;;;;;;;;;;;16.74;74.60;100872.22;1992079;29;19932;-68
2022/09/14 02:07:18;;;;;;;;;;;;;;;16.70;74.97;100868.72;1991593;29;20298;-68
2022/09/14 02:08:20;;;;;;;;;;;;;;;16.66;75.13;100870.63;1991167;29;20045;-68
2022/09/14 02:09:25;;;;;;;;;;;;;;;16.63;75.14;100872.19;1991467;29;20389;-69
2022/09/14 02:10:28;;;;;;;;;;;;;;;16.58;75.28;100869.00;1992161;29;20354;-68
2022/09/14 02:11:31;;;;;;;;;;;;;;;16.57;76.17;100867.47;1992382;29;19984;-68
2022/09/14 02:12:35;;;;;;;;;;;;;;;16.55;75.99;100867.03;1991877;29;19924;-69
2022/09/14 02:13:40;;;;;;;;;;;;;;;16.55;75.85;100864.31;1992221;29;19928;-69
2022/09/14 02:14:43;;;;;;;;;;;;;;;16.56;75.97;100865.88;1991282;29;19937;-67
2022/09/14 02:15:47;;;;;;;;;;;;;;;16.56;75.74;100863.94;1992393;29;20358;-68
2022/09/14 02:16:49;;;;;;;;;;;;;;;16.54;75.23;100860.81;1991635;29;20435;-68
2022/09/14 02:17:53;;;;;;;;;;;;;;;16.56;75.73;100863.16;1991662;29;20105;-69
2022/09/14 02:18:58;;;;;;;;;;;;;;;16.57;76.12;100857.31;1991752;29;19972;-68
2022/09/14 02:20:03;;;;;;;;;;;;;;;16.59;76.08;100859.66;1992058;29;19931;-68
2022/09/14 02:21:11;;;;;;;;;;;;;;;16.61;76.66;100862.78;1992190;29;19956;-69
2022/09/14 02:22:15;;;;;;;;;;;;;;;16.62;76.65;100864.38;1992295;29;19925;-68
2022/09/14 02:23:17;;;;;;;;;;;;;;;16.64;77.01;100853.84;1991981;29;20369;-68
2022/09/14 02:24:21;;;;;;;;;;;;;;;16.66;76.69;100859.72;1991894;29;19924;-68
2022/09/14 02:25:23;;;;;;;;;;;;;;;16.67;75.73;100864.00;1991565;29;19929;-68
2022/09/14 02:26:29;;;;;;;;;;;;;;;16.68;75.93;100854.66;1992243;29;19928;-68
2022/09/14 02:27:31;;;;;;;;;;;;;;;16.69;76.33;100856.22;1992317;29;19960;-68
2022/09/14 02:28:35;;;;;;;;;;;;;;;16.69;75.85;100850.78;1992019;29;19925;-68
2022/09/14 02:29:39;;;;;;;;;;;;;;;16.69;76.18;100848.84;1991543;29;20020;-69
2022/09/14 02:30:47;;;;;;;;;;;;;;;16.72;75.94;100853.53;1991180;29;19928;-68
2022/09/14 02:31:58;;;;;;;;;;;;;;;16.74;75.81;100855.88;1992275;29;19929;-68
2022/09/14 02:33:07;;;;;;;;;;;;;;;16.75;75.71;100851.97;1991516;29;20377;-68
2022/09/14 02:34:13;;;;;;;;;;;;;;;16.76;75.40;100856.28;1983909;29;19933;-69
2022/09/14 02:35:18;;;;;;;;;;;;;;;16.77;76.10;100855.09;1983862;29;19994;-69
2022/09/14 02:36:25;;;;;;;;;;;;;;;16.78;75.75;100856.66;1990402;29;19936;-69
2022/09/14 02:37:33;;;;;;;;;;;;;;;16.79;75.54;100859.00;1991782;29;19939;-69
2022/09/14 02:38:40;;;;;;;;;;;;;;;16.80;76.05;100859.78;1992198;29;20015;-69
2022/09/14 02:39:45;;;;;;;;;;;;;;;16.81;75.63;100850.47;1983772;29;19933;-68
2022/09/14 02:40:52;;;;;;;;;;;;;;;16.80;74.86;100860.59;1985433;29;19936;-68
2022/09/14 02:41:59;;;;;;;;;;;;;;;16.80;75.31;100857.84;1992341;29;19925;-68
2022/09/14 02:43:11;;;;;;;;;;;;;;;16.80;75.27;100852.41;1983661;29;20052;-68
2022/09/14 02:44:17;;;;;;;;;;;;;;;16.81;75.33;100855.91;1977068;29;19952;-68
2022/09/14 02:45:27;;;;;;;;;;;;;;;16.81;75.09;100853.19;1976672;29;19929;-68
2022/09/14 02:46:37;;;;;;;;;;;;;;;16.82;75.03;100854.75;1976445;29;20431;-69
2022/09/14 02:47:48;;;;;;;;;;;;;;;16.82;75.13;100849.28;1985594;29;20092;-68
2022/09/14 02:48:55;;;;;;;;;;;;;;;16.82;74.34;100857.47;1992554;29;20008;-68
2022/09/14 02:50:06;;;;;;;;;;;;;;;16.81;74.66;100847.75;1990981;29;20029;-68
2022/09/14 02:51:16;;;;;;;;;;;;;;;16.79;74.45;100855.50;1991517;29;20442;-68
2022/09/14 02:52:25;;;;;;;;;;;;;;;16.78;74.19;100857.44;1991659;29;19925;-67
2022/09/14 02:53:30;;;;;;;;;;;;;;;16.76;73.97;100861.72;1991735;29;19975;-68
2022/09/14 02:54:35;;;;;;;;;;;;;;;16.74;74.02;100850.41;1991437;29;19977;-68
2022/09/14 02:55:42;;;;;;;;;;;;;;;16.75;75.58;100846.53;1992393;29;19991;-68
2022/09/14 02:56:45;;;;;;;;;;;;;;;16.74;74.92;100850.41;1991994;29;19924;-68
2022/09/14 02:58:02;;;;;;;;;;;;;;;16.73;73.90;100855.09;1990848;29;20024;-68
2022/09/14 02:59:04;;;;;;;;;;;;;;;16.72;74.41;100850.81;1991067;29;19925;-68
2022/09/14 03:00:08;;;;;;;;;;;;;;;16.72;74.72;100848.06;1990979;29;19929;-68
2022/09/14 03:01:13;;;;;;;;;;;;;;;16.73;74.41;100854.31;1992166;29;19929;-68
2022/09/14 03:02:18;;;;;;;;;;;;;;;16.72;74.67;100847.28;1992245;29;19929;-68
2022/09/14 03:03:21;;;;;;;;;;;;;;;16.72;74.70;100844.56;1991751;29;20263;-68
2022/09/14 03:04:24;;;;;;;;;;;;;;;16.71;73.77;100846.53;1982375;29;20444;-68
2022/09/14 03:05:27;;;;;;;;;;;;;;;16.69;74.15;100848.06;1984180;29;20007;-68
2022/09/14 03:06:30;;;;;;;;;;;;;;;16.68;75.01;100841.81;1991902;29;19943;-68
2022/09/14 03:07:33;;;;;;;;;;;;;;;16.67;74.67;100837.53;1991791;29;19932;-68
2022/09/14 03:08:36;;;;;;;;;;;;;;;16.66;74.40;100843.34;1991543;29;19936;-68
2022/09/14 03:09:39;;;;;;;;;;;;;;;16.66;75.23;100838.69;1991188;29;19929;-68
2022/09/14 03:10:43;;;;;;;;;;;;;;;16.67;75.30;100839.47;1991503;29;19929;-68
2022/09/14 03:11:45;;;;;;;;;;;;;;;16.66;74.50;100835.97;1992489;29;19932;-69
2022/09/14 03:12:49;;;;;;;;;;;;;;;16.67;75.21;100837.53;1992044;29;19928;-69
2022/09/14 03:13:51;;;;;;;;;;;;;;;16.68;75.62;100832.88;1991696;29;19929;-69
2022/09/14 03:14:55;;;;;;;;;;;;;;;16.68;74.32;100846.50;1992125;29;19998;-67
2022/09/14 03:15:57;;;;;;;;;;;;;;;16.68;76.05;100824.69;1983928;29;19933;-69
2022/09/14 03:17:02;;;;;;;;;;;;;;;16.69;76.13;100831.69;1983260;29;20040;-68
2022/09/14 03:18:06;;;;;;;;;;;;;;;16.68;75.58;100824.69;1991529;29;19947;-69
2022/09/14 03:19:13;;;;;;;;;;;;;;;16.69;75.51;100831.69;1984104;29;20039;-68
2022/09/14 03:20:16;;;;;;;;;;;;;;;16.68;75.06;100830.13;1983567;29;20406;-67
2022/09/14 03:21:19;;;;;;;;;;;;;;;16.68;75.27;100830.13;1991031;29;20286;-67
2022/09/14 03:22:22;;;;;;;;;;;;;;;16.68;74.63;100825.44;1991479;29;19924;-68
2022/09/14 03:23:25;;;;;;;;;;;;;;;16.68;75.60;100824.69;1991505;29;19929;-68
2022/09/14 03:24:28;;;;;;;;;;;;;;;16.69;75.69;100823.50;1991720;29;19986;-69
2022/09/14 03:25:35;;;;;;;;;;;;;;;16.70;75.72;100811.47;1990446;29;20027;-69
2022/09/14 03:26:39;;;;;;;;;;;;;;;16.73;76.05;100821.59;1991132;29;19929;-69
2022/09/14 03:27:42;;;;;;;;;;;;;;;16.72;75.61;100820.03;1991511;29;19960;-69
2022/09/14 03:28:50;;;;;;;;;;;;;;;16.72;74.82;100826.25;1992061;29;19928;-69
2022/09/14 03:29:52;;;;;;;;;;;;;;;16.72;75.46;100823.53;1993294;29;19935;-67
2022/09/14 03:30:55;;;;;;;;;;;;;;;16.70;74.85;100822.38;1993141;29;20015;-68
2022/09/14 03:31:58;;;;;;;;;;;;;;;16.70;74.72;100816.91;1992685;29;19929;-68
2022/09/14 03:33:03;;;;;;;;;;;;;;;16.69;74.54;100820.78;1992618;29;19936;-68
2022/09/14 03:34:06;;;;;;;;;;;;;;;16.67;75.09;100821.16;1992711;29;19939;-69
2022/09/14 03:35:12;;;;;;;;;;;;;;;16.67;75.15;100823.09;1993478;29;19940;-69
2022/09/14 03:36:16;;;;;;;;;;;;;;;16.65;75.41;100811.81;1992451;29;19929;-69
2022/09/14 03:37:18;;;;;;;;;;;;;;;16.65;75.04;100814.53;1992800;29;20540;-67
2022/09/14 03:38:23;;;;;;;;;;;;;;;16.64;74.38;100821.94;1992295;29;19929;-68
2022/09/14 03:39:25;;;;;;;;;;;;;;;16.63;74.34;100822.31;1992324;29;19924;-68
2022/09/14 03:40:28;;;;;;;;;;;;;;;16.61;74.21;100819.97;1992428;29;20693;-68
2022/09/14 03:41:31;;;;;;;;;;;;;;;16.59;73.85;100824.22;1992447;29;20015;-68
2022/09/14 03:42:35;;;;;;;;;;;;;;;16.56;74.46;100817.59;1992941;29;20004;-68
2022/09/14 03:43:37;;;;;;;;;;;;;;;16.53;74.74;100812.91;1992473;29;20055;-68
2022/09/14 03:44:41;;;;;;;;;;;;;;;16.52;74.87;100810.56;1992826;29;20462;-68
2022/09/14 03:45:43;;;;;;;;;;;;;;;16.50;74.80;100812.88;1992109;29;20044;-68
2022/09/14 03:46:47;;;;;;;;;;;;;;;16.47;74.25;100814.44;1992286;29;19936;-67
2022/09/14 03:47:49;;;;;;;;;;;;;;;16.46;74.43;100815.59;1992660;29;20015;-68
2022/09/14 03:48:56;;;;;;;;;;;;;;;16.42;74.64;100812.84;1991941;29;19929;-68
2022/09/14 03:49:58;;;;;;;;;;;;;;;16.39;74.48;100802.66;1993161;29;19936;-68
2022/09/14 03:51:02;;;;;;;;;;;;;;;16.38;75.06;100801.13;1993318;29;19928;-68
2022/09/14 03:52:04;;;;;;;;;;;;;;;16.38;75.03;100808.50;1984502;29;20298;-68
2022/09/14 03:53:09;;;;;;;;;;;;;;;16.39;75.26;100799.94;1985091;29;19929;-68
2022/09/14 03:54:11;;;;;;;;;;;;;;;16.41;75.16;100794.13;1992099;29;20002;-68
2022/09/14 03:55:15;;;;;;;;;;;;;;;16.41;74.97;100805.81;1992656;29;19964;-68
2022/09/14 03:56:18;;;;;;;;;;;;;;;16.43;75.39;100806.22;1993112;29;19931;-67
2022/09/14 03:57:22;;;;;;;;;;;;;;;16.43;75.03;100802.69;1993016;29;19936;-68
2022/09/14 03:58:25;;;;;;;;;;;;;;;16.41;74.79;100800.34;1993233;29;19973;-67
2022/09/14 03:59:29;;;;;;;;;;;;;;;16.39;75.05;100802.66;1992829;29;19929;-68
2022/09/14 04:00:31;;;;;;;;;;;;;;;16.39;74.70;100802.66;1993454;29;19933;-68
2022/09/14 04:01:35;;;;;;;;;;;;;;;16.38;75.76;100795.66;1992631;29;20023;-68
2022/09/14 04:02:37;;;;;;;;;;;;;;;16.38;75.44;100798.38;1992928;29;19936;-68
2022/09/14 04:03:41;;;;;;;;;;;;;;;16.36;75.31;100797.22;1992748;29;20019;-68
2022/09/14 04:04:47;;;;;;;;;;;;;;;16.36;75.70;100792.53;1992135;29;20019;-67
2022/09/14 04:05:57;;;;;;;;;;;;;;;16.37;75.94;100799.56;1993057;29;20309;-69
2022/09/14 04:06:59;;;;;;;;;;;;;;;16.37;75.62;100798.78;1993175;29;20406;-69
2022/09/14 04:08:03;;;;;;;;;;;;;;;16.34;76.16;100805.78;1992813;29;19932;-69
2022/09/14 04:09:06;;;;;;;;;;;;;;;16.33;75.39;100798.75;1992132;29;20410;-69
2022/09/14 04:10:09;;;;;;;;;;;;;;;16.29;75.67;100802.59;1992702;29;19993;-69
2022/09/14 04:11:13;;;;;;;;;;;;;;;16.26;74.85;100797.91;1986412;29;19929;-69
2022/09/14 04:12:16;;;;;;;;;;;;;;;16.21;75.22;100796.34;1986183;29;20017;-69
2022/09/14 04:13:19;;;;;;;;;;;;;;;16.19;75.45;100798.66;1992694;29;20011;-69
2022/09/14 04:14:23;;;;;;;;;;;;;;;16.16;75.40;100798.63;1992649;29;20012;-69
2022/09/14 04:15:26;;;;;;;;;;;;;;;16.16;75.64;100798.63;1992470;29;19933;-68
2022/09/14 04:16:30;;;;;;;;;;;;;;;16.15;76.17;100799.78;1993174;29;20339;-68
2022/09/14 04:17:32;;;;;;;;;;;;;;;16.15;76.61;100784.25;1993732;29;19929;-68
2022/09/14 04:18:36;;;;;;;;;;;;;;;16.16;76.59;100788.50;1993010;29;19932;-68
2022/09/14 04:19:40;;;;;;;;;;;;;;;16.16;76.09;100793.97;1991104;29;19986;-67
2022/09/14 04:20:53;;;;;;;;;;;;;;;16.14;75.99;100793.56;1992167;29;20239;-67
2022/09/14 04:21:57;;;;;;;;;;;;;;;16.12;75.98;100787.72;1993043;29;20250;-67
2022/09/14 04:23:00;;;;;;;;;;;;;;;16.10;75.96;100789.25;1993602;29;19928;-68
2022/09/14 04:24:03;;;;;;;;;;;;;;;16.08;76.16;100792.34;1984627;29;20313;-67
2022/09/14 04:25:16;;;;;;;;;;;;;;;16.07;75.87;100788.06;1985896;29;20314;-68
2022/09/14 04:26:21;;;;;;;;;;;;;;;16.06;76.73;100785.72;1983702;29;19940;-67
2022/09/14 04:27:23;;;;;;;;;;;;;;;16.05;76.27;100786.88;1984549;29;20378;-67
2022/09/14 04:28:27;;;;;;;;;;;;;;;16.05;76.26;100786.88;1992332;29;20015;-68
2022/09/14 04:29:29;;;;;;;;;;;;;;;16.06;76.70;100783.75;1992721;29;20071;-67
2022/09/14 04:30:33;;;;;;;;;;;;;;;16.07;77.13;100790.00;1992447;29;20023;-68
2022/09/14 04:31:36;;;;;;;;;;;;;;;16.08;76.75;100784.19;1992175;29;19944;-68
2022/09/14 04:32:39;;;;;;;;;;;;;;;16.09;77.54;100772.13;1992115;29;20381;-68
2022/09/14 04:33:43;;;;;;;;;;;;;;;16.11;77.08;100780.69;1992938;29;20377;-68
2022/09/14 04:34:48;;;;;;;;;;;;;;;16.12;76.35;100781.47;1984393;29;19998;-68
2022/09/14 04:36:00;;;;;;;;;;;;;;;16.12;76.65;100782.28;1984639;29;19964;-68
2022/09/14 04:37:04;;;;;;;;;;;;;;;16.13;75.99;100783.03;1992441;29;20795;-68
2022/09/14 04:38:06;;;;;;;;;;;;;;;16.13;76.00;100788.47;1991674;29;19928;-68
2022/09/14 04:39:12;;;;;;;;;;;;;;;16.13;75.79;100783.03;1991745;29;19924;-68
2022/09/14 04:40:14;;;;;;;;;;;;;;;16.14;75.79;100782.66;1990637;29;20011;-68
2022/09/14 04:41:19;;;;;;;;;;;;;;;16.14;76.22;100782.66;1985701;29;20700;-68
2022/09/14 04:42:23;;;;;;;;;;;;;;;16.15;76.42;100786.97;1985599;29;19959;-68
2022/09/14 04:43:26;;;;;;;;;;;;;;;16.16;76.72;100776.81;1991766;29;19933;-68
2022/09/14 04:44:29;;;;;;;;;;;;;;;16.17;76.28;100773.72;1992346;29;20300;-68
2022/09/14 04:45:32;;;;;;;;;;;;;;;16.18;75.75;100782.69;1992442;29;20045;-69
2022/09/14 04:46:35;;;;;;;;;;;;;;;16.19;76.71;100782.31;1992812;29;19932;-69
2022/09/14 04:47:40;;;;;;;;;;;;;;;16.20;76.18;100781.16;1992857;29;20473;-69
2022/09/14 04:48:43;;;;;;;;;;;;;;;16.21;76.24;100785.44;1992341;29;20310;-69
2022/09/14 04:49:47;;;;;;;;;;;;;;;16.20;75.73;100783.88;1991849;29;19933;-69
2022/09/14 04:50:49;;;;;;;;;;;;;;;16.18;75.24;100791.66;1984211;29;19929;-67
2022/09/14 04:51:55;;;;;;;;;;;;;;;16.16;75.74;100787.72;1984584;29;19994;-68
2022/09/14 04:52:57;;;;;;;;;;;;;;;16.11;75.70;100780.69;1994272;29;19924;-67
2022/09/14 04:54:03;;;;;;;;;;;;;;;16.07;75.85;100779.91;1993541;29;19973;-68
2022/09/14 04:55:06;;;;;;;;;;;;;;;16.03;75.71;100789.97;1991741;29;19940;-68
2022/09/14 04:56:11;;;;;;;;;;;;;;;16.02;76.20;100788.41;1993090;29;19924;-68
2022/09/14 04:57:14;;;;;;;;;;;;;;;16.03;76.08;100779.06;1984837;29;19925;-68
2022/09/14 04:58:16;;;;;;;;;;;;;;;16.05;76.72;100775.97;1985132;29;19940;-68
2022/09/14 04:59:20;;;;;;;;;;;;;;;16.05;76.41;100774.03;1984725;29;19933;-68
2022/09/14 05:00:22;;;;;;;;;;;;;;;16.07;76.02;100779.09;1984714;29;19929;-68
2022/09/14 05:01:27;;;;;;;;;;;;;;;16.07;75.79;100781.84;1992522;29;20465;-68
2022/09/14 05:02:30;;;;;;;;;;;;;;;16.05;75.41;100782.22;1992239;29;20015;-68
2022/09/14 05:03:34;;;;;;;;;;;;;;;16.04;75.57;100786.09;1985587;29;20442;-68
2022/09/14 05:04:38;;;;;;;;;;;;;;;16.03;75.79;100779.06;1985160;29;20448;-68
2022/09/14 05:05:40;;;;;;;;;;;;;;;16.04;75.77;100780.66;1991743;29;20295;-68
2022/09/14 05:06:46;;;;;;;;;;;;;;;16.04;76.39;100777.16;1991614;29;20330;-69
2022/09/14 05:07:50;;;;;;;;;;;;;;;16.05;76.57;100778.69;1992352;29;19928;-69
2022/09/14 05:08:54;;;;;;;;;;;;;;;16.07;76.76;100774.44;1991899;29;19932;-69
2022/09/14 05:09:57;;;;;;;;;;;;;;;16.07;76.76;100774.44;1985205;29;19963;-68
2022/09/14 05:11:00;;;;;;;;;;;;;;;16.08;76.04;100773.28;1984693;29;20011;-68
2022/09/14 05:12:03;;;;;;;;;;;;;;;16.09;76.27;100777.56;1992439;29;19928;-68
2022/09/14 05:13:07;;;;;;;;;;;;;;;16.09;75.65;100777.56;1991786;29;19988;-68
2022/09/14 05:14:10;;;;;;;;;;;;;;;16.09;75.82;100779.53;1991577;29;19925;-68
2022/09/14 05:15:14;;;;;;;;;;;;;;;16.07;75.96;100779.91;1985558;29;20603;-68
2022/09/14 05:16:23;;;;;;;;;;;;;;;16.08;75.92;100778.72;1985606;29;19925;-68
2022/09/14 05:17:26;;;;;;;;;;;;;;;16.08;76.12;100773.28;1992641;29;20697;-68
2022/09/14 05:18:29;;;;;;;;;;;;;;;16.07;75.96;100776.38;1992047;29;20351;-68
2022/09/14 05:19:35;;;;;;;;;;;;;;;16.07;75.82;100779.91;1991959;29;19956;-68
2022/09/14 05:20:38;;;;;;;;;;;;;;;16.05;75.23;100776.75;1992096;29;19936;-68
2022/09/14 05:21:41;;;;;;;;;;;;;;;16.04;75.50;100780.66;1984100;29;20012;-67
2022/09/14 05:22:47;;;;;;;;;;;;;;;16.04;75.85;100774.41;1984502;29;19929;-68
2022/09/14 05:23:57;;;;;;;;;;;;;;;16.03;75.97;100779.06;1993128;29;19929;-67
2022/09/14 05:24:59;;;;;;;;;;;;;;;16.02;76.47;100763.91;1991930;29;19925;-68
2022/09/14 05:26:03;;;;;;;;;;;;;;;16.02;76.80;100761.19;1992335;29;20289;-68
2022/09/14 05:27:07;;;;;;;;;;;;;;;16.04;76.23;100768.97;1992084;29;19929;-68
2022/09/14 05:28:10;;;;;;;;;;;;;;;16.05;77.23;100760.44;1992294;29;19977;-68
2022/09/14 05:29:14;;;;;;;;;;;;;;;16.07;76.98;100771.72;1991718;29;19978;-68
2022/09/14 05:30:17;;;;;;;;;;;;;;;16.07;76.72;100773.66;1992346;29;19937;-68
2022/09/14 05:31:20;;;;;;;;;;;;;;;16.09;76.25;100776.78;1978122;29;19925;-68
2022/09/14 05:32:24;;;;;;;;;;;;;;;16.08;75.84;100772.50;1979802;29;20044;-68